Rands, Iowa
Current Conditions -  °F | °C
As of 10:35 AM on Monday 24 Nov 2014 (Local Time) from KCIN Reporting Station
Unknown Precip Unknown Precip  
Wind Chill:   Ceiling: 2300
Heat Index: 25°   Visibility: 10mi
Dew Point: 16°   Wind: 26mph
Humidity: 69%   Direction: 310°NW
Pressure: 29.62"   Gusts: 38mph
Location:  42.385°N, 94.6304°W
Report Text: KCIN 241635Z AUTO 31023G33KT 10SM -UP OVC023 M04/M09 A2962 RMK AO2
Loading
Personal Weather Stations






























Interactive Weather Map New forecast layout! Learn more

10-Day Weather Forecast

Advertisements
Track Severe Weather on mobile